Time;durP1;ratioP1;P1;durP2;ratioP2;P2;SDS_P1;SDS_P2;PMS_P1;PMS_P2;Temp;Humidity;BMP_temperature;BMP_pressure;BME280_temperature;BME280_humidity;BME280_pressure;Samples;Min_cycle;Max_cycle;Signal;HPM_P1;HPM_P2
2022/10/28 00:00:27;;;;;;;21.58;15.27;;;19.20;91.70;;;;;;6369372;22;20005;-82
2022/10/28 00:02:53;;;;;;;24.10;16.08;;;19.20;91.60;;;;;;6368054;22;20007;-82
2022/10/28 00:05:18;;;;;;;22.48;14.48;;;19.30;91.60;;;;;;6368938;22;19995;-83
2022/10/28 00:07:44;;;;;;;21.52;15.32;;;19.20;91.50;;;;;;6368663;22;19998;-81
2022/10/28 00:10:09;;;;;;;16.40;12.40;;;19.20;91.40;;;;;;6370729;22;20509;-81
2022/10/28 00:12:36;;;;;;;18.98;13.65;;;19.20;91.40;;;;;;6370607;22;20413;-82
2022/10/28 00:15:03;;;;;;;19.83;14.30;;;19.10;91.50;;;;;;6370532;22;20087;-82
2022/10/28 00:17:29;;;;;;;17.75;13.35;;;19.10;91.50;;;;;;6370151;22;20025;-81
2022/10/28 00:19:55;;;;;;;25.95;14.13;;;19.00;91.50;;;;;;6369819;22;19998;-83
2022/10/28 00:22:20;;;;;;;21.23;12.93;;;19.00;91.40;;;;;;6369942;22;20040;-80
2022/10/28 00:24:46;;;;;;;19.30;12.15;;;19.00;91.60;;;;;;6370287;22;20337;-83
2022/10/28 00:27:11;;;;;;;18.25;12.55;;;19.00;91.40;;;;;;6369787;22;20025;-80
2022/10/28 00:29:37;;;;;;;19.55;12.35;;;19.00;91.50;;;;;;6369830;22;20316;-81
2022/10/28 00:32:03;;;;;;;19.45;12.38;;;19.00;91.40;;;;;;6368987;22;19994;-80
2022/10/28 00:34:29;;;;;;;19.95;13.05;;;19.00;91.40;;;;;;6342229;22;20006;-80
2022/10/28 00:36:54;;;;;;;18.13;11.73;;;19.10;91.30;;;;;;6369715;22;20022;-81
2022/10/28 00:39:23;;;;;;;18.67;12.13;;;19.10;91.20;;;;;;6370066;22;20629;-81
2022/10/28 00:41:51;;;;;;;19.48;12.30;;;19.10;91.10;;;;;;6342703;22;20028;-81
2022/10/28 00:44:56;;;;;;;17.35;11.45;;;19.10;91.00;;;;;;6370324;22;20009;-81
2022/10/28 00:47:50;;;;;;;16.58;12.07;;;19.10;90.90;;;;;;6369700;22;20002;-81
2022/10/28 00:50:42;;;;;;;20.15;12.07;;;19.10;90.90;;;;;;6369995;22;20424;-81
2022/10/28 00:53:20;;;;;;;17.55;12.02;;;19.00;90.80;;;;;;6370286;22;20081;-81
2022/10/28 00:55:47;;;;;;;21.25;12.63;;;19.00;90.90;;;;;;6370794;22;20074;-81
2022/10/28 00:58:14;;;;;;;17.17;12.32;;;18.90;91.00;;;;;;6369114;22;20210;-81
2022/10/28 01:00:40;;;;;;;17.15;11.32;;;18.80;91.00;;;;;;6369455;22;20074;-81
2022/10/28 01:03:07;;;;;;;17.17;11.38;;;18.80;91.00;;;;;;6369006;22;20436;-80
2022/10/28 01:05:35;;;;;;;18.50;12.05;;;18.70;91.10;;;;;;6369696;22;20005;-81
2022/10/28 01:08:03;;;;;;;20.63;12.00;;;18.70;91.10;;;;;;6369796;22;19990;-81
2022/10/28 01:10:55;;;;;;;18.55;11.70;;;18.70;91.10;;;;;;6370268;22;19994;-81
2022/10/28 01:13:36;;;;;;;15.75;11.40;;;18.70;91.10;;;;;;6370238;22;20091;-81
2022/10/28 01:16:27;;;;;;;17.85;11.70;;;18.70;91.10;;;;;;6341197;22;20002;-81
2022/10/28 01:19:10;;;;;;;16.98;11.65;;;18.60;91.00;;;;;;6369767;22;20538;-81
2022/10/28 01:22:06;;;;;;;16.88;10.93;;;18.60;91.00;;;;;;6368867;22;20002;-81
2022/10/28 01:24:42;;;;;;;13.32;9.55;;;18.50;91.10;;;;;;6370079;22;20021;-79
2022/10/28 01:27:37;;;;;;;16.63;11.23;;;18.50;91.20;;;;;;6369609;22;19994;-78
2022/10/28 01:30:13;;;;;;;19.60;10.52;;;18.40;91.20;;;;;;6336729;22;19998;-82
2022/10/28 01:32:54;;;;;;;19.20;11.38;;;18.40;91.40;;;;;;6369599;22;20030;-82
2022/10/28 01:35:31;;;;;;;16.63;11.55;;;18.40;91.40;;;;;;6369101;22;19998;-81
2022/10/28 01:38:16;;;;;;;19.55;10.98;;;18.40;91.40;;;;;;6370250;22;19998;-82
2022/10/28 01:41:08;;;;;;;15.43;10.15;;;18.40;91.30;;;;;;6369713;22;20006;-80
2022/10/28 01:43:47;;;;;;;17.67;11.07;;;18.40;91.30;;;;;;6362756;22;20002;-81
2022/10/28 01:46:22;;;;;;;15.43;10.65;;;18.30;91.30;;;;;;6369031;22;20040;-83
2022/10/28 01:49:16;;;;;;;17.70;9.73;;;18.30;91.30;;;;;;6369922;22;19995;-84
2022/10/28 01:51:49;;;;;;;17.40;9.68;;;18.40;91.20;;;;;;6335262;22;20305;-84
2022/10/28 01:54:19;;;;;;;13.57;9.70;;;18.40;91.10;;;;;;6370421;22;20002;-84
2022/10/28 01:56:47;;;;;;;20.23;10.85;;;18.40;91.10;;;;;;6368925;22;20008;-85
2022/10/28 01:59:17;;;;;;;14.85;10.15;;;18.40;91.00;;;;;;6369866;22;19998;-85
2022/10/28 02:01:43;;;;;;;13.77;9.05;;;18.30;91.00;;;;;;6370076;22;20119;-85
2022/10/28 02:04:09;;;;;;;13.60;8.48;;;18.30;91.30;;;;;;6369900;22;20006;-84
2022/10/28 02:06:37;;;;;;;13.30;8.75;;;18.20;91.10;;;;;;6369163;22;20073;-83
2022/10/28 02:09:47;;;;;;;11.48;8.38;;;18.20;91.10;;;;;;6369925;22;19999;-82
2022/10/28 02:12:29;;;;;;;12.88;9.40;;;18.20;91.00;;;;;;6369335;22;20001;-82
2022/10/28 02:15:26;;;;;;;10.82;8.45;;;18.10;90.90;;;;;;6369173;22;20006;-81
2022/10/28 02:18:13;;;;;;;13.05;8.85;;;18.10;91.00;;;;;;6369119;22;20006;-82
2022/10/28 02:21:04;;;;;;;14.75;9.18;;;18.00;91.10;;;;;;6368864;22;20018;-82
2022/10/28 02:23:44;;;;;;;11.65;8.77;;;18.00;91.20;;;;;;6368718;22;20028;-82
2022/10/28 02:26:19;;;;;;;12.82;8.88;;;18.00;91.20;;;;;;6369043;22;20079;-82
2022/10/28 02:29:02;;;;;;;14.23;9.00;;;18.00;91.10;;;;;;6369306;22;20069;-82
2022/10/28 02:31:41;;;;;;;14.63;8.60;;;18.00;91.10;;;;;;6368416;22;19994;-83
2022/10/28 02:34:12;;;;;;;13.80;8.90;;;18.00;91.00;;;;;;6369070;22;20421;-83
2022/10/28 02:36:43;;;;;;;11.32;8.60;;;17.90;91.00;;;;;;6369369;22;19998;-84
2022/10/28 02:39:10;;;;;;;13.48;8.73;;;17.90;91.00;;;;;;6369269;22;20047;-84
2022/10/28 02:41:41;;;;;;;13.35;8.48;;;17.80;91.00;;;;;;6368539;22;20073;-84
2022/10/28 02:44:12;;;;;;;10.60;8.38;;;17.80;91.10;;;;;;6368892;22;20002;-84
2022/10/28 02:46:42;;;;;;;13.95;9.00;;;17.80;91.10;;;;;;6369286;22;20001;-84
2022/10/28 02:49:11;;;;;;;10.68;7.80;;;17.80;91.10;;;;;;6341990;22;20002;-84
2022/10/28 02:51:43;;;;;;;11.27;8.50;;;17.80;91.10;;;;;;6340949;22;20377;-84
2022/10/28 02:54:11;;;;;;;13.05;8.90;;;17.80;91.20;;;;;;6369116;22;20051;-83
2022/10/28 02:56:41;;;;;;;12.73;8.43;;;17.90;91.10;;;;;;6368817;22;20002;-85
2022/10/28 02:59:11;;;;;;;10.65;7.82;;;17.90;91.10;;;;;;6367181;22;20010;-84
2022/10/28 03:01:38;;;;;;;10.45;7.25;;;17.90;91.10;;;;;;6368353;22;20028;-84
2022/10/28 03:04:04;;;;;;;10.38;7.35;;;18.00;91.00;;;;;;6368818;22;20005;-85
2022/10/28 03:06:30;;;;;;;11.25;7.55;;;18.00;90.90;;;;;;6369193;22;20074;-86
2022/10/28 03:08:56;;;;;;;12.20;7.30;;;18.00;90.90;;;;;;6368446;22;20025;-86
2022/10/28 03:11:22;;;;;;;8.98;6.53;;;18.10;90.80;;;;;;6340740;22;19998;-85
2022/10/28 03:13:47;;;;;;;12.65;7.95;;;18.00;90.70;;;;;;6368343;22;20007;-85
2022/10/28 03:16:13;;;;;;;9.63;7.43;;;18.00;90.70;;;;;;6369107;22;20012;-85
2022/10/28 03:18:39;;;;;;;13.45;7.25;;;17.90;90.70;;;;;;6369399;22;20073;-83
2022/10/28 03:21:04;;;;;;;10.13;7.38;;;17.80;90.80;;;;;;6368880;22;20003;-83
2022/10/28 03:23:30;;;;;;;16.25;7.32;;;17.80;90.80;;;;;;6368567;22;20013;-83
2022/10/28 03:25:56;;;;;;;11.82;7.40;;;17.70;90.90;;;;;;6368756;22;20506;-83
2022/10/28 03:28:21;;;;;;;11.35;7.13;;;17.60;91.00;;;;;;6369022;22;19998;-83
2022/10/28 03:30:47;;;;;;;13.70;8.20;;;17.60;91.10;;;;;;6368771;22;20028;-83
2022/10/28 03:33:13;;;;;;;9.38;7.57;;;17.70;91.20;;;;;;6368469;22;20320;-83
2022/10/28 03:35:38;;;;;;;12.35;8.32;;;17.70;91.20;;;;;;6368968;22;19998;-83
2022/10/28 03:38:04;;;;;;;13.60;8.18;;;17.70;91.10;;;;;;6369231;22;20005;-83
2022/10/28 03:40:30;;;;;;;9.65;7.40;;;17.80;91.00;;;;;;6368980;22;20026;-83
2022/10/28 03:42:56;;;;;;;11.45;7.28;;;17.90;90.90;;;;;;6369323;22;20546;-82
2022/10/28 03:45:21;;;;;;;10.30;7.10;;;17.90;90.80;;;;;;6370311;22;19994;-83
2022/10/28 03:47:47;;;;;;;11.57;7.18;;;17.90;90.70;;;;;;6371321;22;20026;-82
2022/10/28 03:50:13;;;;;;;12.13;7.22;;;17.80;90.50;;;;;;6370600;22;19999;-82
2022/10/28 03:52:38;;;;;;;11.50;7.30;;;17.80;90.60;;;;;;6370321;22;20370;-83
2022/10/28 03:55:04;;;;;;;10.77;6.88;;;17.70;90.60;;;;;;6370878;22;19994;-83
2022/10/28 03:57:31;;;;;;;12.43;6.95;;;17.70;90.70;;;;;;6370958;22;20051;-83
2022/10/28 03:59:57;;;;;;;9.10;6.95;;;17.70;90.70;;;;;;6370702;22;19998;-82
2022/10/28 04:02:23;;;;;;;10.50;6.45;;;17.80;90.70;;;;;;6370578;22;20005;-83
2022/10/28 04:04:49;;;;;;;10.35;6.70;;;17.80;90.70;;;;;;6357822;22;19998;-82
2022/10/28 04:07:14;;;;;;;9.75;6.95;;;17.80;90.70;;;;;;6371286;22;19994;-83
2022/10/28 04:09:40;;;;;;;10.20;6.90;;;17.80;90.60;;;;;;6370335;22;20007;-82
2022/10/28 04:12:06;;;;;;;8.57;6.40;;;17.80;90.50;;;;;;6370317;22;20007;-83
2022/10/28 04:14:32;;;;;;;11.77;7.10;;;17.90;90.50;;;;;;6341800;22;20002;-82
2022/10/28 04:16:57;;;;;;;8.20;6.50;;;17.90;90.40;;;;;;6370714;22;20006;-82
2022/10/28 04:19:23;;;;;;;9.38;6.43;;;17.90;90.40;;;;;;6370569;22;20009;-83
2022/10/28 04:21:49;;;;;;;10.82;6.93;;;17.90;90.30;;;;;;6358035;22;19998;-83
2022/10/28 04:24:14;;;;;;;9.18;6.85;;;17.90;90.30;;;;;;6336740;22;20014;-83
2022/10/28 04:26:40;;;;;;;6.75;6.03;;;17.90;90.30;;;;;;6369458;22;20059;-82
2022/10/28 04:29:05;;;;;;;10.48;6.45;;;17.90;90.20;;;;;;6370447;22;19999;-84
2022/10/28 04:31:31;;;;;;;9.05;6.30;;;17.80;90.20;;;;;;6370672;22;20439;-84
2022/10/28 04:33:57;;;;;;;9.93;6.32;;;17.70;90.30;;;;;;6369663;22;20040;-83
2022/10/28 04:36:23;;;;;;;9.57;6.68;;;17.60;90.40;;;;;;6370061;22;20002;-83
2022/10/28 04:38:50;;;;;;;11.15;6.75;;;17.50;90.60;;;;;;6370201;22;20477;-83
2022/10/28 04:41:16;;;;;;;10.77;7.55;;;17.30;90.80;;;;;;6369656;22;20041;-83
2022/10/28 04:43:42;;;;;;;11.43;6.82;;;17.30;90.80;;;;;;6369450;22;20030;-82
2022/10/28 04:46:08;;;;;;;9.48;6.32;;;17.30;90.80;;;;;;6370578;22;19998;-82
2022/10/28 04:48:35;;;;;;;9.95;6.90;;;17.30;90.80;;;;;;6370248;22;20404;-82
2022/10/28 04:51:00;;;;;;;10.45;7.10;;;17.30;90.80;;;;;;6370147;22;20296;-82
2022/10/28 04:53:26;;;;;;;11.57;6.93;;;17.30;90.80;;;;;;6369648;22;20061;-82
2022/10/28 04:55:56;;;;;;;11.63;7.25;;;17.30;90.80;;;;;;6370070;22;20002;-79
2022/10/28 04:58:22;;;;;;;;;;;17.30;90.70;;;;;;6371524;22;19998;-81
2022/10/28 05:00:48;;;;;;;11.07;6.82;;;17.30;90.60;;;;;;6370669;22;19923;-80
2022/10/28 05:03:14;;;;;;;8.52;6.22;;;17.30;90.60;;;;;;6369697;22;20025;-80
2022/10/28 05:05:40;;;;;;;8.52;6.30;;;17.30;90.60;;;;;;6369426;22;20124;-80
2022/10/28 05:08:06;;;;;;;10.73;6.30;;;17.20;90.50;;;;;;6368442;22;20411;-81
2022/10/28 05:10:49;;;;;;;15.48;6.45;;;17.20;90.40;;;;;;6368967;22;19999;-81
2022/10/28 05:13:17;;;;;;;8.55;5.97;;;17.20;90.40;;;;;;6341215;22;20013;-81
2022/10/28 05:15:43;;;;;;;7.97;6.13;;;17.20;90.40;;;;;;6369185;22;20003;-80
2022/10/28 05:18:08;;;;;;;9.68;6.60;;;17.10;90.40;;;;;;6368975;22;20012;-82
2022/10/28 05:20:34;;;;;;;12.48;6.93;;;17.20;90.40;;;;;;6369327;22;19998;-80
2022/10/28 05:23:00;;;;;;;10.80;6.32;;;17.20;90.30;;;;;;6370316;22;20034;-81
2022/10/28 05:25:25;;;;;;;9.90;6.35;;;17.20;90.20;;;;;;6367537;22;20006;-85
2022/10/28 05:27:51;;;;;;;8.60;5.07;;;17.30;90.20;;;;;;6369208;22;20018;-81
2022/10/28 05:30:17;;;;;;;9.30;5.68;;;17.20;90.20;;;;;;6368871;22;20006;-81
2022/10/28 05:32:43;;;;;;;10.65;5.45;;;17.30;90.20;;;;;;6368095;22;19998;-82
2022/10/28 05:35:09;;;;;;;6.72;4.75;;;17.40;90.10;;;;;;6369476;22;20066;-82
2022/10/28 05:37:35;;;;;;;10.40;5.95;;;17.40;90.10;;;;;;6369733;22;20005;-84
2022/10/28 05:40:01;;;;;;;9.13;5.55;;;17.40;90.00;;;;;;6369089;22;19998;-88
2022/10/28 05:42:27;;;;;;;10.25;5.72;;;17.50;89.90;;;;;;6369306;22;20009;-87
2022/10/28 05:44:53;;;;;;;7.78;5.72;;;17.50;89.90;;;;;;6369209;22;20002;-83
2022/10/28 05:47:18;;;;;;;9.57;6.20;;;17.50;89.90;;;;;;6368593;22;20297;-87
2022/10/28 05:49:44;;;;;;;10.73;5.70;;;17.50;89.80;;;;;;6368634;22;20044;-77
2022/10/28 05:52:10;;;;;;;7.20;5.75;;;17.50;89.80;;;;;;6369355;22;20002;-73
2022/10/28 05:54:35;;;;;;;7.80;5.93;;;17.60;89.80;;;;;;6370447;22;20001;-76
2022/10/28 05:57:01;;;;;;;12.52;6.43;;;17.60;89.60;;;;;;6370179;22;20486;-76
2022/10/28 05:59:27;;;;;;;8.75;5.53;;;17.60;89.50;;;;;;6370137;22;20449;-76
2022/10/28 06:01:52;;;;;;;7.28;5.18;;;17.60;89.40;;;;;;6369657;22;20077;-84
2022/10/28 06:04:18;;;;;;;6.57;5.35;;;17.60;89.40;;;;;;6369896;22;20084;-83
2022/10/28 06:06:43;;;;;;;6.47;5.43;;;17.60;89.50;;;;;;6369528;22;20075;-76
2022/10/28 06:09:09;;;;;;;8.68;5.38;;;17.60;89.50;;;;;;6370114;22;19994;-83
2022/10/28 06:11:35;;;;;;;9.73;5.95;;;17.60;89.40;;;;;;6370514;22;20006;-84
2022/10/28 06:14:01;;;;;;;9.23;6.00;;;17.70;89.50;;;;;;6342621;22;20053;-84
2022/10/28 06:16:27;;;;;;;7.72;5.72;;;17.70;89.40;;;;;;6369213;22;20485;-83
2022/10/28 06:18:52;;;;;;;11.13;6.10;;;17.70;89.40;;;;;;6369098;22;20720;-76
2022/10/28 06:21:19;;;;;;;10.38;5.38;;;17.70;89.40;;;;;;6369421;22;20052;-86
2022/10/28 06:23:47;;;;;;;9.68;5.55;;;17.70;89.70;;;;;;6341815;22;20010;-85
2022/10/28 06:26:13;;;;;;;9.20;5.63;;;17.70;89.70;;;;;;6369331;22;20002;-85
2022/10/28 06:28:38;;;;;;;7.28;5.28;;;17.70;89.80;;;;;;6369994;22;20431;-85
2022/10/28 06:31:07;;;;;;;9.32;5.97;;;17.70;90.00;;;;;;6369387;22;20005;-85
2022/10/28 06:33:34;;;;;;;13.77;5.68;;;17.70;90.00;;;;;;6369371;22;20063;-85
2022/10/28 06:36:00;;;;;;;8.20;5.60;;;17.70;90.00;;;;;;6362112;22;20010;-85
2022/10/28 06:38:27;;;;;;;12.02;5.88;;;17.80;90.00;;;;;;6359230;22;20666;-85
2022/10/28 06:40:53;;;;;;;9.70;5.85;;;17.80;90.00;;;;;;6367105;22;20274;-84
2022/10/28 06:43:19;;;;;;;7.63;5.88;;;17.80;89.80;;;;;;6365041;22;20475;-86
2022/10/28 06:45:52;;;;;;;9.07;5.47;;;17.80;89.70;;;;;;6367693;22;20048;-84
2022/10/28 06:48:18;;;;;;;7.97;5.65;;;17.80;89.60;;;;;;6364572;22;20293;-76
2022/10/28 06:50:44;;;;;;;11.30;5.93;;;17.90;90.00;;;;;;6365984;22;19998;-77
2022/10/28 06:53:09;;;;;;;10.48;5.80;;;18.00;90.00;;;;;;6336136;22;20038;-83
2022/10/28 06:55:35;;;;;;;9.75;6.60;;;18.10;89.80;;;;;;6372401;22;20026;-76
2022/10/28 06:58:04;;;;;;;13.48;6.05;;;18.20;89.40;;;;;;6370536;22;20077;-82
2022/10/28 07:00:32;;;;;;;14.02;6.20;;;18.20;89.00;;;;;;6345914;22;20010;-78
2022/10/28 07:02:59;;;;;;;9.50;5.55;;;18.20;88.90;;;;;;6374125;22;20063;-78
2022/10/28 07:05:26;;;;;;;8.00;6.10;;;18.30;89.10;;;;;;6345203;22;20009;-78
2022/10/28 07:07:57;;;;;;;8.07;5.72;;;18.30;89.30;;;;;;6344432;22;20429;-84
2022/10/28 07:10:23;;;;;;;9.30;6.32;;;18.30;89.40;;;;;;6370030;22;20355;-79
2022/10/28 07:12:51;;;;;;;10.85;6.32;;;18.30;89.40;;;;;;6341437;22;20053;-78
2022/10/28 07:15:17;;;;;;;7.78;5.50;;;18.30;89.40;;;;;;6368369;22;20255;-82
2022/10/28 07:17:43;;;;;;;9.63;6.03;;;18.30;89.50;;;;;;6366118;22;20025;-82
2022/10/28 07:20:09;;;;;;;9.15;5.70;;;18.30;89.60;;;;;;6370297;22;20051;-76
2022/10/28 07:22:35;;;;;;;8.63;5.43;;;18.40;89.70;;;;;;6370165;22;19998;-76
2022/10/28 07:25:01;;;;;;;17.92;5.88;;;18.40;89.80;;;;;;6366350;22;20020;-82
2022/10/28 07:27:26;;;;;;;10.60;5.22;;;18.40;89.80;;;;;;6370850;22;20003;-84
2022/10/28 07:29:52;;;;;;;8.82;5.60;;;18.50;89.70;;;;;;6370906;22;20325;-83
2022/10/28 07:32:17;;;;;;;12.02;5.03;;;18.50;89.60;;;;;;6370721;22;20334;-84
2022/10/28 07:34:43;;;;;;;8.15;4.15;;;18.60;89.60;;;;;;6342320;22;20006;-81
2022/10/28 07:37:11;;;;;;;6.75;4.40;;;18.60;89.50;;;;;;6342971;22;20025;-83
2022/10/28 07:39:37;;;;;;;8.85;4.80;;;18.70;89.30;;;;;;6343170;22;20008;-83
2022/10/28 07:42:03;;;;;;;10.75;4.00;;;18.70;89.20;;;;;;6371406;22;20073;-82
2022/10/28 07:44:28;;;;;;;18.83;5.57;;;18.80;89.20;;;;;;6370014;22;20010;-82
2022/10/28 07:46:54;;;;;;;8.05;3.70;;;18.80;89.20;;;;;;6369744;22;20424;-82
2022/10/28 07:49:20;;;;;;;13.55;4.70;;;18.90;89.10;;;;;;6370014;22;20001;-83
2022/10/28 07:51:48;;;;;;;6.40;3.97;;;18.90;88.90;;;;;;6369713;22;20020;-83
2022/10/28 07:54:13;;;;;;;8.10;3.78;;;19.00;88.80;;;;;;6370015;22;20009;-84
2022/10/28 07:56:39;;;;;;;6.65;3.08;;;19.10;88.60;;;;;;6370337;22;20007;-83
2022/10/28 07:59:05;;;;;;;7.25;3.00;;;19.20;88.30;;;;;;6370480;22;20412;-83
2022/10/28 08:01:31;;;;;;;6.55;2.90;;;19.30;87.80;;;;;;6369610;22;20004;-83
2022/10/28 08:03:56;;;;;;;5.30;2.47;;;19.50;87.20;;;;;;6370735;22;20025;-83
2022/10/28 08:06:22;;;;;;;6.20;2.72;;;19.70;86.80;;;;;;6368767;22;20001;-83
2022/10/28 08:08:52;;;;;;;4.82;2.60;;;19.80;86.30;;;;;;6369580;22;20325;-77
2022/10/28 08:11:22;;;;;;;8.32;2.40;;;20.00;85.60;;;;;;6370327;22;19998;-77
2022/10/28 08:13:48;;;;;;;3.88;2.20;;;20.10;85.50;;;;;;6370760;22;19998;-76
2022/10/28 08:16:14;;;;;;;7.00;2.20;;;20.30;84.60;;;;;;6368533;22;20002;-83
2022/10/28 08:18:40;;;;;;;6.68;2.17;;;20.40;83.50;;;;;;6369137;22;20012;-77
2022/10/28 08:21:09;;;;;;;5.45;2.03;;;20.60;83.70;;;;;;6371405;22;20325;-79
2022/10/28 08:23:35;;;;;;;5.35;2.00;;;20.70;82.80;;;;;;6371550;22;20044;-81
2022/10/28 08:26:02;;;;;;;6.43;2.58;;;20.90;82.40;;;;;;6369616;22;20010;-82
2022/10/28 08:28:27;;;;;;;6.20;3.47;;;21.00;81.80;;;;;;6368131;22;20002;-81
2022/10/28 08:30:58;;;;;;;5.70;2.83;;;21.20;81.70;;;;;;6369690;22;20435;-85
2022/10/28 08:33:24;;;;;;;8.02;3.72;;;21.30;81.30;;;;;;6370284;22;20003;-80
2022/10/28 08:35:50;;;;;;;5.53;3.80;;;21.50;81.10;;;;;;6370071;22;20777;-88
2022/10/28 08:38:16;;;;;;;6.40;3.50;;;21.60;80.30;;;;;;6368474;22;20006;-84
2022/10/28 08:41:19;;;;;;;6.28;3.53;;;21.70;80.10;;;;;;6368965;22;20008;-85
2022/10/28 08:43:48;;;;;;;6.78;3.42;;;21.90;79.90;;;;;;6369171;22;20014;-85
2022/10/28 08:46:28;;;;;;;8.25;3.45;;;22.00;79.60;;;;;;6370455;22;20029;-88
2022/10/28 08:48:54;;;;;;;;;;;22.20;79.00;;;;;;6369567;22;19994;-88
2022/10/28 08:51:39;;;;;;;5.07;3.42;;;22.30;78.40;;;;;;6369478;22;19898;-87
2022/10/28 08:54:13;;;;;;;7.28;4.00;;;22.40;78.10;;;;;;6353032;22;20002;-85
2022/10/28 08:56:45;;;;;;;8.43;3.88;;;22.60;78.00;;;;;;6368214;22;20014;-84
2022/10/28 08:59:34;;;;;;;4.10;3.03;;;22.70;77.80;;;;;;6369673;22;20003;-82
2022/10/28 09:02:10;;;;;;;5.43;4.10;;;22.80;77.30;;;;;;6367891;22;20013;-80
2022/10/28 09:04:42;;;;;;;7.05;3.53;;;22.90;77.10;;;;;;6369613;22;20007;-80
2022/10/28 09:07:17;;;;;;;6.00;3.90;;;23.10;76.80;;;;;;6368307;22;20128;-86
2022/10/28 09:09:44;;;;;;;7.47;3.92;;;23.20;76.30;;;;;;6368465;22;20409;-86
2022/10/28 09:12:24;;;;;;;9.27;4.55;;;23.30;75.80;;;;;;6341376;22;20006;-84
2022/10/28 09:15:23;;;;;;;7.25;4.15;;;23.50;75.60;;;;;;6368530;22;19998;-85
2022/10/28 09:17:53;;;;;;;6.78;4.28;;;23.60;75.30;;;;;;6369080;22;20069;-84
2022/10/28 09:20:30;;;;;;;9.95;4.10;;;23.80;75.10;;;;;;6369626;22;20003;-83
2022/10/28 09:23:15;;;;;;;6.38;4.18;;;23.90;74.80;;;;;;6340062;22;20048;-85
2022/10/28 09:25:56;;;;;;;7.30;4.47;;;24.00;74.90;;;;;;6367625;22;20020;-81
2022/10/28 09:28:43;;;;;;;6.95;4.28;;;24.20;75.10;;;;;;6367515;22;19990;-80
2022/10/28 09:31:34;;;;;;;5.57;4.03;;;24.30;74.80;;;;;;6369735;22;20005;-81
2022/10/28 09:34:55;;;;;;;6.55;4.00;;;24.40;74.20;;;;;;6368723;22;20051;-84
2022/10/28 09:37:20;;;;;;;7.32;4.60;;;24.60;73.10;;;;;;6297824;22;20460;-83
2022/10/28 09:39:55;;;;;;;5.15;3.92;;;24.80;72.70;;;;;;6369653;22;20026;-83
2022/10/28 09:42:37;;;;;;;5.53;3.83;;;24.90;72.50;;;;;;6369540;22;20011;-83
2022/10/28 09:45:22;;;;;;;13.55;4.70;;;25.10;72.50;;;;;;6369691;22;20032;-86
2022/10/28 09:48:04;;;;;;;6.53;4.05;;;25.20;72.30;;;;;;6370332;22;20005;-84
2022/10/28 09:50:31;;;;;;;8.75;4.32;;;25.30;71.90;;;;;;6369692;22;20366;-82
2022/10/28 09:53:21;;;;;;;6.22;4.40;;;25.40;71.60;;;;;;6369776;22;19999;-84
2022/10/28 09:55:48;;;;;;;;;;;25.50;71.50;;;;;;6370011;22;20006;-84
2022/10/28 09:58:15;;;;;;;5.72;3.55;;;25.60;70.60;;;;;;6369091;22;19898;-86
2022/10/28 10:00:41;;;;;;;5.60;2.80;;;25.70;69.70;;;;;;6370077;22;20002;-83
2022/10/28 10:03:07;;;;;;;6.43;2.97;;;25.70;69.10;;;;;;6368629;22;20010;-85
2022/10/28 10:05:39;;;;;;;6.70;3.83;;;25.80;68.90;;;;;;6369240;22;20561;-83
2022/10/28 10:08:05;;;;;;;5.85;3.33;;;25.90;68.90;;;;;;6369067;22;20010;-85
2022/10/28 10:10:59;;;;;;;4.68;3.28;;;26.10;68.90;;;;;;6369809;22;20074;-86
2022/10/28 10:13:36;;;;;;;6.10;3.25;;;26.20;68.60;;;;;;5070262;28;20432;-85
2022/10/28 10:16:12;;;;;;;;;;;26.30;68.60;;;;;;5069390;28;20033;-81
2022/10/28 10:18:45;;;;;;;8.43;3.00;;;26.40;68.50;;;;;;5084114;28;19915;-82
2022/10/28 10:21:11;;;;;;;5.07;2.78;;;26.50;68.30;;;;;;5070084;28;20020;-84
2022/10/28 10:23:37;;;;;;;5.25;2.20;;;26.70;68.10;;;;;;5068586;28;20036;-85
2022/10/28 10:26:09;;;;;;;3.83;2.45;;;26.70;67.30;;;;;;5082254;28;20496;-85
2022/10/28 10:28:47;;;;;;;4.65;2.90;;;26.80;66.60;;;;;;5068229;28;20078;-84
2022/10/28 10:31:21;;;;;;;6.97;2.88;;;26.90;66.60;;;;;;5082666;28;20099;-83
2022/10/28 10:33:57;;;;;;;4.05;2.60;;;27.10;66.60;;;;;;5058907;28;20104;-83
2022/10/28 10:36:30;;;;;;;4.15;2.38;;;27.20;66.30;;;;;;5066849;28;20465;-84
2022/10/28 10:39:00;;;;;;;5.07;2.40;;;27.30;66.40;;;;;;5067122;28;20025;-83
2022/10/28 10:41:54;;;;;;;4.45;2.20;;;27.40;66.00;;;;;;5069804;28;20036;-83
2022/10/28 10:44:20;;;;;;;4.25;2.28;;;27.50;65.90;;;;;;5066436;28;20063;-84
2022/10/28 10:47:12;;;;;;;3.85;2.30;;;27.70;65.70;;;;;;5073600;28;20056;-83
2022/10/28 10:49:38;;;;;;;6.15;1.88;;;27.80;64.60;;;;;;5068395;28;20045;-82
2022/10/28 10:52:24;;;;;;;9.30;3.05;;;27.80;63.40;;;;;;5068761;28;20021;-83
2022/10/28 10:55:06;;;;;;;2.67;2.10;;;27.80;60.30;;;;;;5055006;28;20695;-83
2022/10/28 10:57:33;;;;;;;10.48;2.58;;;27.80;62.50;;;;;;5049401;28;20017;-83
2022/10/28 10:59:59;;;;;;;6.78;2.63;;;27.90;62.70;;;;;;5066877;28;20075;-83
2022/10/28 11:02:35;;;;;;;3.67;2.00;;;27.90;62.60;;;;;;5072780;28;20083;-81
2022/10/28 11:05:07;;;;;;;4.95;2.10;;;28.00;62.50;;;;;;5052308;28;20116;-82
2022/10/28 11:07:34;;;;;;;5.53;2.53;;;28.30;62.30;;;;;;5070905;28;20041;-83
2022/10/28 11:10:01;;;;;;;4.10;1.70;;;28.40;61.00;;;;;;5068287;28;20057;-82
2022/10/28 11:12:31;;;;;;;5.03;2.20;;;28.50;61.50;;;;;;5068493;28;20049;-84
2022/10/28 11:14:59;;;;;;;9.57;2.53;;;28.60;61.10;;;;;;5075323;28;20086;-82
2022/10/28 11:17:27;;;;;;;4.70;2.45;;;28.80;60.70;;;;;;5068031;28;20043;-83
2022/10/28 11:19:56;;;;;;;5.53;2.35;;;29.00;60.10;;;;;;5067960;28;20013;-82
2022/10/28 11:22:47;;;;;;;5.68;2.47;;;29.30;59.60;;;;;;5071755;28;20043;-84
2022/10/28 11:25:19;;;;;;;10.65;3.25;;;29.80;58.70;;;;;;5052016;28;20522;-85
2022/10/28 11:28:24;;;;;;;5.15;2.08;;;30.80;57.10;;;;;;5056754;28;20103;-83
2022/10/28 11:31:14;;;;;;;8.70;2.40;;;32.00;55.00;;;;;;5053264;28;20366;-85
2022/10/28 11:33:59;;;;;;;5.43;2.13;;;33.30;52.40;;;;;;5052649;28;20025;-82
2022/10/28 11:36:43;;;;;;;7.22;1.92;;;34.60;49.30;;;;;;5051961;28;20075;-83
2022/10/28 11:39:19;;;;;;;17.70;2.70;;;35.30;47.00;;;;;;5053159;28;20033;-82
2022/10/28 11:42:03;;;;;;;4.25;2.58;;;36.00;45.60;;;;;;5050963;28;20124;-82
2022/10/28 11:44:53;;;;;;;5.68;2.05;;;36.60;44.20;;;;;;5054103;28;20032;-82
2022/10/28 11:47:31;;;;;;;4.32;2.00;;;37.20;43.20;;;;;;5052086;28;20020;-84
2022/10/28 11:50:34;;;;;;;4.85;2.40;;;37.60;42.00;;;;;;5051763;28;20025;-83
2022/10/28 11:53:06;;;;;;;4.03;2.08;;;37.90;40.50;;;;;;5050265;28;20039;-84
2022/10/28 11:58:45;;;;;;;16.42;4.38;;;38.20;40.20;;;;;;5066441;23;20489;-81
2022/10/28 12:01:39;;;;;;;6.38;4.10;;;38.20;40.40;;;;;;5015607;28;20592;-83
2022/10/28 12:04:20;;;;;;;6.47;4.20;;;38.30;41.20;;;;;;5018682;28;20029;-81
2022/10/28 12:06:55;;;;;;;11.73;5.25;;;38.30;40.90;;;;;;5020051;28;20505;-84
2022/10/28 12:10:10;;;;;;;13.02;6.32;;;38.20;41.50;;;;;;5025583;28;20075;-84
2022/10/28 12:12:45;;;;;;;19.85;8.15;;;38.00;42.10;;;;;;4960487;28;20046;-85
2022/10/28 12:15:27;;;;;;;13.40;6.82;;;37.80;42.50;;;;;;5023878;28;20083;-85
2022/10/28 12:18:04;;;;;;;8.23;6.28;;;37.50;43.10;;;;;;5022575;28;20544;-84
2022/10/28 12:20:35;;;;;;;8.77;6.25;;;37.20;43.30;;;;;;5019736;28;20030;-83
2022/10/28 12:23:05;;;;;;;13.82;7.53;;;36.90;43.80;;;;;;5020892;28;20030;-83
2022/10/28 12:25:35;;;;;;;13.80;6.97;;;36.70;44.20;;;;;;5019338;28;20057;-83
2022/10/28 12:28:06;;;;;;;9.15;6.07;;;36.60;44.40;;;;;;5013007;28;20041;-82
2022/10/28 12:30:36;;;;;;;11.35;6.50;;;36.50;44.40;;;;;;5020989;28;20076;-86
2022/10/28 12:33:45;;;;;;;10.68;6.10;;;36.50;44.30;;;;;;5018525;28;20107;-85
2022/10/28 12:36:54;;;;;;;14.48;6.57;;;36.50;43.80;;;;;;4971626;28;20169;-83
2022/10/28 12:39:42;;;;;;;13.32;7.38;;;36.60;43.90;;;;;;4956612;28;20046;-84
2022/10/28 12:42:32;;;;;;;11.18;6.72;;;36.70;43.50;;;;;;5020233;28;20601;-84
2022/10/28 12:45:02;;;;;;;17.80;8.02;;;36.80;43.40;;;;;;5022156;28;20371;-82
2022/10/28 12:47:40;;;;;;;11.65;6.85;;;36.90;43.80;;;;;;5025604;28;20080;-85
2022/10/28 12:50:32;;;;;;;13.43;7.78;;;37.00;42.90;;;;;;5032839;28;20037;-86
2022/10/28 12:52:58;;;;;;;13.23;7.35;;;37.00;42.70;;;;;;5032546;28;20504;-79
2022/10/28 12:55:26;;;;;;;16.17;6.63;;;36.50;42.50;;;;;;5032035;28;20033;-80
2022/10/28 12:58:11;;;;;;;14.27;7.70;;;35.90;43.00;;;;;;5026408;28;20490;-81
2022/10/28 13:00:44;;;;;;;9.50;6.88;;;35.10;44.60;;;;;;5022426;28;20053;-79
2022/10/28 13:03:14;;;;;;;11.13;6.50;;;34.30;45.20;;;;;;5028489;28;20394;-78
2022/10/28 13:05:40;;;;;;;9.32;6.65;;;33.50;45.70;;;;;;5016578;28;20026;-78
2022/10/28 13:08:14;;;;;;;13.65;6.53;;;32.80;46.90;;;;;;5026046;28;20116;-78